Aviation Digital Data Service (ADDS)

Output produced by METARs form (1103 UTC 30 April 2017)
found at http://www.aviationweather.gov/adds/metars/
 
MHSC 301058Z AUTO 11007KT 9999 CLR 24/20 A2994 RMK AO2 SLP094 T02440200 $
MHLC 300600Z 00000KT 5000 FU NSC 26/24 Q1009 A2980 NOSIG
TAF MHLC 301025Z 3012/0112 17003KT 6000 FEW028 TX33/3019Z TN23/0112Z 
     BECMG 3016/3018 02010KT 
     BECMG 3021/3023 8000 SCT024TCU 
     BECMG 0102/0104 15004KT 5000 FU FEW024 SCT080
       
MHRO 300600Z 08016G31KT CAVOK 28/26 Q1010 A2983 NOSIG
TAF MHRO 301025Z 3012/0112 10022KT 9999 FEW022 TX32/3019Z TN27/0112Z 
     BECMG 3020/3022 09018G30KT CAVOK 
     BECMG 0103/0105 11020KT 9999 FEW025
       
MHLM 301100Z 19008KT 9999 FEW024 31/23 Q1008 A2977 NOSIG
TAF MHLM 301025Z 3012/0112 18004KT 9999 FEW028 TX40/3019Z TN25/0112Z 
     BECMG 3017/3019 03010KT 
     BECMG 0102/0104 16005KT FEW026 SCT080
       
MHTG 301100Z 00000KT 9999 FEW026 SCT250 20/18 Q1018 A3006 NOSIG
TAF MHTG 301025Z 3012/0112 12004KT 8000 SCT026 TX31/3020Z TN19/0112Z 
     BECMG 3016/3018 18006KT 9999 SCT028TCU 
     PROB30 
     TEMPO 3021/0103 7000 VCSH FEW030CB SCT032TCU 
     BECMG 0103/0105 8000 NSW SCT028 SCT080